Melia — V7YJ6 — position and weather

sailwx.info

Track history (hours):
 
Tides and Currents Weather Stations Pressure Air Temp Water Temp Dewpoint Dewpoint Depression Visibility Wind Speed Wind Dir Waves Ship Positions

Melia

Last reported at 2018-Jan-11 21:44 UTC. Time now 2018-Jan-22 04:15 UTC.
Position N 48°29' W 125°02'.
Warning: this ship's position is 10 days out of date.

Length 225 m; draft 7.5 m.

Type: Cargo ship. MMSI: 538004675.

Date/timePositionNaut miles runAvg speedWind from/ knotsBaromVisibWave heightAir tempDewpointWater temp
2018-Jan-11 21:44N 48°29' W 125°02'313.2
2018-Jan-11 21:30N 48°30' W 124°58'713.5
2018-Jan-11 21:00N 48°31' W 124°48'713.2
2018-Jan-11 20:31N 48°29' W 124°38'713.4
2018-Jan-11 20:01N 48°27' W 124°29'713.3
2018-Jan-11 19:30N 48°24' W 124°20'613.2
2018-Jan-11 19:01N 48°21' W 124°11'713.0
2018-Jan-11 18:29N 48°19' W 124°01'1712.6
2018-Jan-11 17:05N 48°16' W 123°35'212.0
2018-Jan-11 16:58N 48°16' W 123°33'610.3
2018-Jan-11 16:23N 48°20' W 123°26'4 9.9
2018-Jan-11 16:01N 48°23' W 123°22'3 5.1
2018-Jan-11 15:31N 48°23' W 123°19'611.2
2018-Jan-11 15:00N 48°27' W 123°12'714.0
2018-Jan-11 14:30N 48°34' W 123°13'713.9
2018-Jan-11 14:00N 48°41' W 123°15'612.1
2018-Jan-11 13:30N 48°44' W 123°08'713.0
2018-Jan-11 13:00N 48°49' W 123°01'812.8
2018-Jan-11 12:24N 48°54' W 123°09'411.5
2018-Jan-11 12:00N 48°59' W 123°10'2 3.4
2018-Jan-11 11:28N 49°01' W 123°10'0 0.0
2018-Jan-11 10:55N 49°01' W 123°10'0 0.0
2018-Jan-11 10:22N 49°01' W 123°10'0 0.0
2018-Jan-11 09:58N 49°01' W 123°10'0 0.0
2018-Jan-11 09:31N 49°01' W 123°10'0 0.0
2018-Jan-11 08:58N 49°01' W 123°10'0 0.0
2018-Jan-11 08:31N 49°01' W 123°10'0 0.0
2018-Jan-11 08:01N 49°01' W 123°10'0 0.0
2018-Jan-11 07:30N 49°01' W 123°10'0 0.0
2018-Jan-11 07:00N 49°01' W 123°10'0 0.0
2018-Jan-11 06:30N 49°01' W 123°10'0 0.0
2018-Jan-11 06:00N 49°01' W 123°10'0 0.0
2018-Jan-11 05:30N 49°01' W 123°10'0 0.0
2018-Jan-11 05:00N 49°01' W 123°10'0 0.0
2018-Jan-11 04:30N 49°01' W 123°10'0 0.0
2018-Jan-11 04:00N 49°01' W 123°10'0 0.0
2018-Jan-11 03:27N 49°01' W 123°10'0 0.0
2018-Jan-11 02:57N 49°01' W 123°10'0 0.0
2018-Jan-11 02:30N 49°01' W 123°10'0 0.0
2018-Jan-11 02:00N 49°01' W 123°10'0 0.0
2018-Jan-11 01:30N 49°01' W 123°10'0 0.0
2018-Jan-11 01:00N 49°01' W 123°10'0 0.0
2018-Jan-11 00:30N 49°01' W 123°10'0 0.0
2018-Jan-11 00:00N 49°01' W 123°10'0 0.0
2018-Jan-10 23:30N 49°01' W 123°10'0 0.0
2018-Jan-10 23:00N 49°01' W 123°10'0 0.0
2018-Jan-10 22:30N 49°01' W 123°10'0 0.0
2018-Jan-10 22:00N 49°01' W 123°10'0 0.0
2018-Jan-10 21:30N 49°01' W 123°10'0 0.0
2018-Jan-10 21:00N 49°01' W 123°10'0 0.0
2018-Jan-10 20:30N 49°01' W 123°10'0 0.0
2018-Jan-10 20:00N 49°01' W 123°10'0 0.0
2018-Jan-10 19:30N 49°01' W 123°10'0 0.0
2018-Jan-10 19:00N 49°01' W 123°10'0 0.0
2018-Jan-10 18:30N 49°01' W 123°10'0 0.0
2018-Jan-10 18:00N 49°01' W 123°10'0 0.0
2018-Jan-10 17:30N 49°01' W 123°10'0 0.0
2018-Jan-10 17:00N 49°01' W 123°10'0 0.0
2018-Jan-10 16:30N 49°01' W 123°10'0 0.0
2018-Jan-10 16:00N 49°01' W 123°10'0 0.0
2018-Jan-10 15:27N 49°01' W 123°10'0 0.0
2018-Jan-10 15:00N 49°01' W 123°10'0 0.0
2018-Jan-10 14:30N 49°01' W 123°10'0 0.0
2018-Jan-10 13:57N 49°01' W 123°10'0 0.0
2018-Jan-10 13:30N 49°01' W 123°10'0 0.0
2018-Jan-10 13:00N 49°01' W 123°10'0 0.0
2018-Jan-10 12:30N 49°01' W 123°10'0 0.0
2018-Jan-10 12:00N 49°01' W 123°10'0 0.1
2018-Jan-10 11:30N 49°01' W 123°10'2 3.4
2018-Jan-10 11:00N 49°01' W 123°13'2 5.0
2018-Jan-10 10:30N 49°01' W 123°17'4 8.4
2018-Jan-10 10:00N 49°03' W 123°22'4 8.6
2018-Jan-10 09:30N 49°07' W 123°24'713.3
2018-Jan-10 09:00N 49°14' W 123°22'611.9
2018-Jan-10 08:30N 49°18' W 123°15'2 2.5
2018-Jan-10 07:34N 49°17' W 123°12'0 0.1
2018-Jan-10 07:28N 49°17' W 123°12'0 0.0
2018-Jan-10 06:58N 49°17' W 123°12'0 0.0
2018-Jan-10 06:25N 49°17' W 123°12'0 0.0
2018-Jan-10 05:58N 49°17' W 123°12'0 0.0
2018-Jan-10 05:28N 49°17' W 123°12'0 0.0
2018-Jan-10 04:55N 49°17' W 123°12'0 0.0
2018-Jan-10 04:28N 49°17' W 123°12'0 0.0
2018-Jan-10 03:58N 49°17' W 123°12'0 0.0
2018-Jan-10 03:28N 49°17' W 123°12'0 0.1
2018-Jan-10 02:58N 49°17' W 123°12'0 0.0
2018-Jan-10 02:28N 49°17' W 123°12'0 0.0
2018-Jan-10 01:49N 49°17' W 123°12'0 0.0
2018-Jan-10 01:25N 49°17' W 123°12'0 0.0
2018-Jan-10 00:58N 49°17' W 123°12'0 0.0
2018-Jan-10 00:25N 49°17' W 123°12'0 0.0
2018-Jan-09 23:58N 49°17' W 123°12'0 0.0
2018-Jan-09 23:28N 49°17' W 123°12'0 0.0
2018-Jan-09 22:58N 49°17' W 123°12'0 0.0
2018-Jan-09 22:25N 49°17' W 123°12'0 0.0
2018-Jan-09 21:58N 49°17' W 123°12'0 0.1
2018-Jan-09 21:25N 49°17' W 123°12'0 0.0
2018-Jan-09 20:55N 49°17' W 123°12'0 0.0
2018-Jan-09 20:19N 49°17' W 123°12'0 0.0
2018-Jan-09 19:55N 49°17' W 123°12'0 0.0
2018-Jan-09 19:28N 49°17' W 123°12'0 0.0
2018-Jan-09 18:55N 49°17' W 123°12'0 0.0
2018-Jan-09 18:25N 49°17' W 123°12'0 0.0
2018-Jan-09 17:52N 49°17' W 123°12'0 0.0
2018-Jan-09 17:28N 49°17' W 123°12'0 0.0
2018-Jan-09 16:58N 49°17' W 123°12'0 0.0
2018-Jan-09 16:28N 49°17' W 123°12'0 0.1
2018-Jan-09 15:58N 49°17' W 123°12'0 0.4
2018-Jan-09 15:28N 49°17' W 123°12'0 1.1
2018-Jan-09 15:00N 49°18' W 123°13'3 6.7
2018-Jan-09 14:30N 49°17' W 123°18'713.7
2018-Jan-09 14:00N 49°10' W 123°19'714.1
2018-Jan-09 13:30N 49°03' W 123°19'714.3
2018-Jan-09 13:00N 48°58' W 123°11'714.1
2018-Jan-09 12:29N 48°53' W 123°03'612.4
2018-Jan-09 12:00N 48°47' W 123°02'713.3
2018-Jan-09 11:30N 48°43' W 123°11'612.2
2018-Jan-09 11:00N 48°46' W 123°19'713.2
2018-Jan-09 10:30N 48°51' W 123°25'714.7
2018-Jan-09 10:00N 48°57' W 123°32'  
Track history (hours):
 
Tides and Currents Weather Stations Pressure Air Temp Water Temp Dewpoint Dewpoint Depression Visibility Wind Speed Wind Dir Waves Ship Positions

Melia

Last reported at 2018-Jan-11 21:44 UTC. Time now 2018-Jan-22 04:15 UTC.
Position N 48°29' W 125°02'.
Warning: this ship's position is 10 days out of date.

Length 225 m; draft 7.5 m.

Type: Cargo ship. MMSI: 538004675.

Date/timePositionNaut miles runAvg speedWind from/ knotsBaromVisibWave heightAir tempDewpointWater temp
2018-Jan-11 21:44N 48°29' W 125°02'313.2
2018-Jan-11 21:30N 48°30' W 124°58'713.5
2018-Jan-11 21:00N 48°31' W 124°48'713.2
2018-Jan-11 20:31N 48°29' W 124°38'713.4
2018-Jan-11 20:01N 48°27' W 124°29'713.3
2018-Jan-11 19:30N 48°24' W 124°20'613.2
2018-Jan-11 19:01N 48°21' W 124°11'713.0
2018-Jan-11 18:29N 48°19' W 124°01'1712.6
2018-Jan-11 17:05N 48°16' W 123°35'212.0
2018-Jan-11 16:58N 48°16' W 123°33'610.3
2018-Jan-11 16:23N 48°20' W 123°26'4 9.9
2018-Jan-11 16:01N 48°23' W 123°22'3 5.1
2018-Jan-11 15:31N 48°23' W 123°19'611.2
2018-Jan-11 15:00N 48°27' W 123°12'714.0
2018-Jan-11 14:30N 48°34' W 123°13'713.9
2018-Jan-11 14:00N 48°41' W 123°15'612.1
2018-Jan-11 13:30N 48°44' W 123°08'713.0
2018-Jan-11 13:00N 48°49' W 123°01'812.8
2018-Jan-11 12:24N 48°54' W 123°09'411.5
2018-Jan-11 12:00N 48°59' W 123°10'2 3.4
2018-Jan-11 11:28N 49°01' W 123°10'0 0.0
2018-Jan-11 10:55N 49°01' W 123°10'0 0.0
2018-Jan-11 10:22N 49°01' W 123°10'0 0.0
2018-Jan-11 09:58N 49°01' W 123°10'0 0.0
2018-Jan-11 09:31N 49°01' W 123°10'0 0.0
2018-Jan-11 08:58N 49°01' W 123°10'0 0.0
2018-Jan-11 08:31N 49°01' W 123°10'0 0.0
2018-Jan-11 08:01N 49°01' W 123°10'0 0.0
2018-Jan-11 07:30N 49°01' W 123°10'0 0.0
2018-Jan-11 07:00N 49°01' W 123°10'0 0.0
2018-Jan-11 06:30N 49°01' W 123°10'0 0.0
2018-Jan-11 06:00N 49°01' W 123°10'0 0.0
2018-Jan-11 05:30N 49°01' W 123°10'0 0.0
2018-Jan-11 05:00N 49°01' W 123°10'0 0.0
2018-Jan-11 04:30N 49°01' W 123°10'0 0.0
2018-Jan-11 04:00N 49°01' W 123°10'0 0.0
2018-Jan-11 03:27N 49°01' W 123°10'0 0.0
2018-Jan-11 02:57N 49°01' W 123°10'0 0.0
2018-Jan-11 02:30N 49°01' W 123°10'0 0.0
2018-Jan-11 02:00N 49°01' W 123°10'0 0.0
2018-Jan-11 01:30N 49°01' W 123°10'0 0.0
2018-Jan-11 01:00N 49°01' W 123°10'0 0.0
2018-Jan-11 00:30N 49°01' W 123°10'0 0.0
2018-Jan-11 00:00N 49°01' W 123°10'0 0.0
2018-Jan-10 23:30N 49°01' W 123°10'0 0.0
2018-Jan-10 23:00N 49°01' W 123°10'0 0.0
2018-Jan-10 22:30N 49°01' W 123°10'0 0.0
2018-Jan-10 22:00N 49°01' W 123°10'0 0.0
2018-Jan-10 21:30N 49°01' W 123°10'0 0.0
2018-Jan-10 21:00N 49°01' W 123°10'0 0.0
2018-Jan-10 20:30N 49°01' W 123°10'0 0.0
2018-Jan-10 20:00N 49°01' W 123°10'0 0.0
2018-Jan-10 19:30N 49°01' W 123°10'0 0.0
2018-Jan-10 19:00N 49°01' W 123°10'0 0.0
2018-Jan-10 18:30N 49°01' W 123°10'0 0.0
2018-Jan-10 18:00N 49°01' W 123°10'0 0.0
2018-Jan-10 17:30N 49°01' W 123°10'0 0.0
2018-Jan-10 17:00N 49°01' W 123°10'0 0.0
2018-Jan-10 16:30N 49°01' W 123°10'0 0.0
2018-Jan-10 16:00N 49°01' W 123°10'0 0.0
2018-Jan-10 15:27N 49°01' W 123°10'0 0.0
2018-Jan-10 15:00N 49°01' W 123°10'0 0.0
2018-Jan-10 14:30N 49°01' W 123°10'0 0.0
2018-Jan-10 13:57N 49°01' W 123°10'0 0.0
2018-Jan-10 13:30N 49°01' W 123°10'0 0.0
2018-Jan-10 13:00N 49°01' W 123°10'0 0.0
2018-Jan-10 12:30N 49°01' W 123°10'0 0.0
2018-Jan-10 12:00N 49°01' W 123°10'0 0.1
2018-Jan-10 11:30N 49°01' W 123°10'2 3.4
2018-Jan-10 11:00N 49°01' W 123°13'2 5.0
2018-Jan-10 10:30N 49°01' W 123°17'4 8.4
2018-Jan-10 10:00N 49°03' W 123°22'4 8.6
2018-Jan-10 09:30N 49°07' W 123°24'713.3
2018-Jan-10 09:00N 49°14' W 123°22'611.9
2018-Jan-10 08:30N 49°18' W 123°15'2 2.5
2018-Jan-10 07:34N 49°17' W 123°12'0 0.1
2018-Jan-10 07:28N 49°17' W 123°12'0 0.0
2018-Jan-10 06:58N 49°17' W 123°12'0 0.0
2018-Jan-10 06:25N 49°17' W 123°12'0 0.0
2018-Jan-10 05:58N 49°17' W 123°12'0 0.0
2018-Jan-10 05:28N 49°17' W 123°12'0 0.0
2018-Jan-10 04:55N 49°17' W 123°12'0 0.0
2018-Jan-10 04:28N 49°17' W 123°12'0 0.0
2018-Jan-10 03:58N 49°17' W 123°12'0 0.0
2018-Jan-10 03:28N 49°17' W 123°12'0 0.1
2018-Jan-10 02:58N 49°17' W 123°12'0 0.0
2018-Jan-10 02:28N 49°17' W 123°12'0 0.0
2018-Jan-10 01:49N 49°17' W 123°12'0 0.0
2018-Jan-10 01:25N 49°17' W 123°12'0 0.0
2018-Jan-10 00:58N 49°17' W 123°12'0 0.0
2018-Jan-10 00:25N 49°17' W 123°12'0 0.0
2018-Jan-09 23:58N 49°17' W 123°12'0 0.0
2018-Jan-09 23:28N 49°17' W 123°12'0 0.0
2018-Jan-09 22:58N 49°17' W 123°12'0 0.0
2018-Jan-09 22:25N 49°17' W 123°12'0 0.0
2018-Jan-09 21:58N 49°17' W 123°12'0 0.1
2018-Jan-09 21:25N 49°17' W 123°12'0 0.0
2018-Jan-09 20:55N 49°17' W 123°12'0 0.0
2018-Jan-09 20:19N 49°17' W 123°12'0 0.0
2018-Jan-09 19:55N 49°17' W 123°12'0 0.0
2018-Jan-09 19:28N 49°17' W 123°12'0 0.0
2018-Jan-09 18:55N 49°17' W 123°12'0 0.0
2018-Jan-09 18:25N 49°17' W 123°12'0 0.0
2018-Jan-09 17:52N 49°17' W 123°12'0 0.0
2018-Jan-09 17:28N 49°17' W 123°12'0 0.0
2018-Jan-09 16:58N 49°17' W 123°12'0 0.0
2018-Jan-09 16:28N 49°17' W 123°12'0 0.1
2018-Jan-09 15:58N 49°17' W 123°12'0 0.4
2018-Jan-09 15:28N 49°17' W 123°12'0 1.1
2018-Jan-09 15:00N 49°18' W 123°13'3 6.7
2018-Jan-09 14:30N 49°17' W 123°18'713.7
2018-Jan-09 14:00N 49°10' W 123°19'714.1
2018-Jan-09 13:30N 49°03' W 123°19'714.3
2018-Jan-09 13:00N 48°58' W 123°11'714.1
2018-Jan-09 12:29N 48°53' W 123°03'612.4
2018-Jan-09 12:00N 48°47' W 123°02'713.3
2018-Jan-09 11:30N 48°43' W 123°11'612.2
2018-Jan-09 11:00N 48°46' W 123°19'713.2
2018-Jan-09 10:30N 48°51' W 123°25'714.7
2018-Jan-09 10:00N 48°57' W 123°32'  

Dump ship's entire track history